^^
Your Local Weather - Clay, NY Station Historical Data
Daily Summary for January 1, 2018 Units:  English    Metric   Both
« Previous Day
Next Day »
Daily Weekly Monthly Yearly Custom
  High: Low: Average:
Temperature: 14.5 °F -14.8 °F 3.8 °F
Dew Point: 9.7 °F -19.2 °F -2.3 °F
Humidity: 87% 58% 76%
Wind Speed: 6.0mph 0.0mph 1.8mph
Wind Gust: 13.0mph - -
Wind- - SW
Pressure: 30.42 in 30.24 in -
Precipitation: 0.00 in    
Historical Graphs
 
 
Tabular Data for January 1, 2018
Time Temperature Dew Point Pressure Wind Wind Speed Wind Gust Humidity Rainfall Rate (Hourly) solar
00:00 -2.8 °F -6.4 °F 30.39 in Calm     84% 0.00 in 0 W/m2
00:06 -2.5 °F -6.4 °F 30.39 in Calm     83% 0.00 in 0 W/m2
00:12 -2.2 °F -5.8 °F 30.39 in Calm     84% 0.00 in 0 W/m2
00:18 -1.9 °F -5.6 °F 30.39 in Calm     84% 0.00 in 0 W/m2
00:24 -1.7 °F -5.4 °F 30.39 in Calm     84% 0.00 in 0 W/m2
00:30 -1.6 °F -5.3 °F 30.39 in Calm     84% 0.00 in 0 W/m2
00:36 -1.4 °F -5.1 °F 30.39 in Calm     84% 0.00 in 0 W/m2
00:42 -1.0 °F -4.7 °F 30.39 in Calm     84% 0.00 in 0 W/m2
00:50 -0.8 °F -4.5 °F 30.39 in Calm     84% 0.00 in 0 W/m2
00:56 -0.8 °F -4.5 °F 30.39 in Calm     84% 0.00 in 0 W/m2
01:02 -0.8 °F -4.5 °F 30.39 in Calm     84% 0.00 in 0 W/m2
01:08 -0.8 °F -4.5 °F 30.39 in Calm     84% 0.00 in 0 W/m2
01:12 -0.7 °F -4.4 °F 30.39 in Calm     84% 0.00 in 0 W/m2
01:18 -0.7 °F -4.4 °F 30.39 in Calm     84% 0.00 in 0 W/m2
01:22 -0.7 °F -4.4 °F 30.39 in Calm     84% 0.00 in 0 W/m2
01:28 -0.6 °F -4.3 °F 30.39 in Calm     84% 0.00 in 0 W/m2
01:34 -0.5 °F -4.2 °F 30.39 in Calm     84% 0.00 in 0 W/m2
01:40 -0.4 °F -4.1 °F 30.39 in Calm     84% 0.00 in 0 W/m2
01:46 -0.3 °F -4.0 °F 30.39 in Calm     84% 0.00 in 0 W/m2
01:52 -0.2 °F -3.9 °F 30.40 in Calm   1.0 mph 84% 0.00 in 0 W/m2
02:00 0.1 °F -3.6 °F 30.40 in Calm     84% 0.00 in 0 W/m2
02:06 0.1 °F -3.6 °F 30.40 in ENE 1.0 mph 1.0 mph 84% 0.00 in 0 W/m2
02:12 0.1 °F -3.8 °F 30.40 in North 1.0 mph 2.0 mph 83% 0.00 in 0 W/m2
02:18 0.0 °F -3.9 °F 30.40 in North 1.0 mph 2.0 mph 83% 0.00 in 0 W/m2
02:24 -0.1 °F -4.0 °F 30.41 in North 1.0 mph 1.0 mph 83% 0.00 in 0 W/m2
02:30 -0.1 °F -4.0 °F 30.41 in North 1.0 mph 1.0 mph 83% 0.00 in 0 W/m2
02:36 -0.2 °F -4.1 °F 30.41 in NNE 2.0 mph 2.0 mph 83% 0.00 in 0 W/m2
02:42 -0.3 °F -4.2 °F 30.41 in NNE 1.0 mph 2.0 mph 83% 0.00 in 0 W/m2
02:44 -0.3 °F -4.2 °F 30.41 in NNE 1.0 mph 2.0 mph 83% 0.00 in 0 W/m2
02:50 -0.5 °F -4.7 °F 30.41 in NNE 1.0 mph 2.0 mph 82% 0.00 in 0 W/m2
02:56 -0.7 °F -4.9 °F 30.41 in North 1.0 mph 2.0 mph 82% 0.00 in 0 W/m2
03:02 -1.0 °F -5.2 °F 30.41 in Calm   2.0 mph 82% 0.00 in 0 W/m2
03:08 -1.2 °F -5.4 °F 30.41 in Calm   2.0 mph 82% 0.00 in 0 W/m2
03:14 -1.5 °F -5.9 °F 30.40 in Calm     81% 0.00 in 0 W/m2
03:22 -2.0 °F -6.4 °F 30.40 in Calm     81% 0.00 in 0 W/m2
03:28 -2.6 °F -7.0 °F 30.40 in Calm     81% 0.00 in 0 W/m2
03:30 -2.8 °F -7.2 °F 30.40 in Calm     81% 0.00 in 0 W/m2
03:36 -3.4 °F -7.8 °F 30.40 in Calm     81% 0.00 in 0 W/m2
03:42 -3.9 °F -8.3 °F 30.40 in Calm     81% 0.00 in 0 W/m2
03:46 -4.2 °F -8.6 °F 30.40 in Calm     81% 0.00 in 0 W/m2
03:52 -4.4 °F -8.8 °F 30.40 in Calm     81% 0.00 in 0 W/m2
03:58 -4.7 °F -9.0 °F 30.40 in Calm     81% 0.00 in 0 W/m2
04:04 -5.0 °F -9.3 °F 30.40 in Calm     81% 0.00 in 0 W/m2
04:10 -5.4 °F -9.7 °F 30.40 in Calm     81% 0.00 in 0 W/m2
04:16 -5.7 °F -10.0 °F 30.40 in Calm     81% 0.00 in 0 W/m2
04:22 -6.0 °F -10.3 °F 30.40 in Calm     81% 0.00 in 0 W/m2
04:28 -6.6 °F -10.9 °F 30.40 in Calm     81% 0.00 in 0 W/m2
04:34 -6.9 °F -11.2 °F 30.40 in Calm     81% 0.00 in 0 W/m2
04:40 -7.3 °F -11.6 °F 30.40 in Calm     81% 0.00 in 0 W/m2
04:44 -7.5 °F -11.8 °F 30.40 in Calm     81% 0.00 in 0 W/m2
04:50 -7.9 °F -12.2 °F 30.40 in Calm     81% 0.00 in 0 W/m2
04:52 -8.1 °F -12.4 °F 30.40 in Calm     81% 0.00 in 0 W/m2
04:58 -8.8 °F -13.1 °F 30.40 in Calm     81% 0.00 in 0 W/m2
05:04 -9.1 °F -13.4 °F 30.41 in Calm     81% 0.00 in 0 W/m2
05:10 -9.3 °F -13.5 °F 30.41 in Calm     81% 0.00 in 0 W/m2
05:16 -9.6 °F -13.8 °F 30.41 in Calm     81% 0.00 in 0 W/m2
05:22 -9.9 °F -14.1 °F 30.41 in Calm     81% 0.00 in 0 W/m2
05:28 -10.2 °F -14.4 °F 30.40 in Calm     81% 0.00 in 0 W/m2
05:34 -10.3 °F -14.5 °F 30.40 in Calm     81% 0.00 in 0 W/m2
05:40 -10.5 °F -14.7 °F 30.40 in Calm     81% 0.00 in 0 W/m2
05:46 -10.8 °F -15.0 °F 30.41 in Calm     81% 0.00 in 0 W/m2
05:52 -10.9 °F -15.1 °F 30.41 in Calm     81% 0.00 in 0 W/m2
05:58 -11.1 °F -15.3 °F 30.41 in Calm     81% 0.00 in 0 W/m2
06:04 -11.4 °F -15.6 °F 30.41 in Calm     81% 0.00 in 0 W/m2
06:10 -11.7 °F -15.9 °F 30.42 in Calm     81% 0.00 in 0 W/m2
06:16 -11.9 °F -16.3 °F 30.42 in Calm     80% 0.00 in 0 W/m2
06:22 -12.2 °F -16.4 °F 30.42 in Calm     81% 0.00 in 0 W/m2
06:28 -12.5 °F -16.9 °F 30.42 in Calm     80% 0.00 in 0 W/m2
06:34 -12.7 °F -17.1 °F 30.42 in Calm     80% 0.00 in 0 W/m2
06:40 -12.9 °F -17.3 °F 30.42 in Calm     80% 0.00 in 0 W/m2
06:46 -13.0 °F -17.4 °F 30.41 in Calm     80% 0.00 in 0 W/m2
06:52 -13.3 °F -17.7 °F 30.41 in Calm     80% 0.00 in 0 W/m2
06:58 -13.7 °F -18.1 °F 30.41 in Calm     80% 0.00 in 0 W/m2
07:04 -13.9 °F -18.3 °F 30.42 in Calm     80% 0.00 in 0 W/m2
07:12 -14.1 °F -18.5 °F 30.42 in Calm     80% 0.00 in 0 W/m2
07:14 -14.1 °F -18.5 °F 30.42 in Calm     80% 0.00 in 0 W/m2
07:20 -14.2 °F -18.6 °F 30.42 in Calm     80% 0.00 in 0 W/m2
07:24 -14.3 °F -18.7 °F 30.42 in Calm     80% 0.00 in 0 W/m2
07:30 -14.5 °F -18.9 °F 30.42 in Calm     80% 0.00 in 0 W/m2
07:36 -14.5 °F -18.9 °F 30.42 in Calm     80% 0.00 in 0 W/m2
07:42 -14.5 °F -18.9 °F 30.42 in Calm     80% 0.00 in 0 W/m2
07:48 -14.6 °F -19.0 °F 30.42 in Calm     80% 0.00 in 0 W/m2
07:54 -14.7 °F -19.1 °F 30.42 in Calm     80% 0.00 in 0 W/m2
08:00 -14.8 °F -19.2 °F 30.42 in Calm     80% 0.00 in 0 W/m2
08:04 -14.7 °F -19.1 °F 30.42 in Calm     80% 0.00 in 0 W/m2
08:10 -14.7 °F -19.1 °F 30.42 in Calm     80% 0.00 in 5 W/m2
08:16 -14.6 °F -19.0 °F 30.42 in Calm     80% 0.00 in 7 W/m2
08:22 -14.4 °F -18.8 °F 30.42 in Calm     80% 0.00 in 9 W/m2
08:28 -14.1 °F -18.5 °F 30.42 in Calm     80% 0.00 in 11 W/m2
08:36 -13.7 °F -18.1 °F 30.42 in Calm     80% 0.00 in 12 W/m2
08:42 -12.9 °F -17.3 °F 30.42 in Calm     80% 0.00 in 14 W/m2
08:48 -12.0 °F -16.2 °F 30.42 in Calm     81% 0.00 in 16 W/m2
08:54 -11.2 °F -15.4 °F 30.42 in Calm     81% 0.00 in 16 W/m2
09:00 -10.2 °F -14.4 °F 30.42 in Calm     81% 0.00 in 16 W/m2
09:06 -9.4 °F -13.6 °F 30.42 in Calm     81% 0.00 in 19 W/m2
09:12 -8.5 °F -12.8 °F 30.42 in Calm     81% 0.00 in 21 W/m2
09:18 -7.6 °F -11.9 °F 30.42 in Calm     81% 0.00 in 21 W/m2
09:24 -5.3 °F -9.4 °F 30.42 in Calm     82% 0.00 in 23 W/m2
09:30 -3.6 °F -7.7 °F 30.42 in Calm     82% 0.00 in 21 W/m2
09:36 -2.6 °F -7.0 °F 30.42 in Calm     81% 0.00 in 21 W/m2
09:42 -1.6 °F -6.3 °F 30.42 in Calm     80% 0.00 in 23 W/m2
09:48 0.0 °F -5.0 °F 30.42 in Calm     79% 0.00 in 23 W/m2
09:54 0.2 °F -5.0 °F 30.42 in Calm   1.0 mph 78% 0.00 in 25 W/m2
10:00 -0.1 °F -5.6 °F 30.42 in Calm   1.0 mph 77% 0.00 in 26 W/m2
10:06 0.2 °F -5.6 °F 30.42 in Calm   1.0 mph 76% 0.00 in 26 W/m2
10:10 0.7 °F -5.1 °F 30.42 in Calm   1.0 mph 76% 0.00 in 28 W/m2
10:16 0.6 °F -5.2 °F 30.42 in SSE 1.0 mph 2.0 mph 76% 0.00 in 30 W/m2
10:22 1.5 °F -4.0 °F 30.42 in Calm   1.0 mph 77% 0.00 in 33 W/m2
10:26 2.3 °F -3.5 °F 30.42 in Calm   1.0 mph 76% 0.00 in 33 W/m2
10:32 3.0 °F -2.9 °F 30.41 in Calm     76% 0.00 in 37 W/m2
10:38 3.2 °F -2.9 °F 30.41 in Calm     75% 0.00 in 40 W/m2
10:44 4.4 °F -1.8 °F 30.41 in Calm     75% 0.00 in 44 W/m2
10:50 4.7 °F -2.1 °F 30.40 in Calm   1.0 mph 73% 0.00 in 47 W/m2
10:56 5.1 °F -1.1 °F 30.40 in Calm   1.0 mph 75% 0.00 in 53 W/m2
11:02 5.2 °F -1.3 °F 30.40 in Calm     74% 0.00 in 56 W/m2
11:08 6.7 °F 0.2 °F 30.39 in Calm     74% 0.00 in 60 W/m2
11:14 7.5 °F 0.4 °F 30.39 in Calm     72% 0.00 in 63 W/m2
11:20 7.0 °F -0.1 °F 30.39 in Calm     72% 0.00 in 67 W/m2
11:26 7.8 °F 0.9 °F 30.38 in Calm     73% 0.00 in 72 W/m2
11:32 7.8 °F 0.3 °F 30.37 in Calm     71% 0.00 in 76 W/m2
11:38 7.4 °F 0.6 °F 30.37 in Calm     73% 0.00 in 77 W/m2
11:46 8.9 °F 2.0 °F 30.37 in Calm   2.0 mph 73% 0.00 in 83 W/m2
11:50 10.1 °F 2.6 °F 30.36 in Calm     71% 0.00 in 86 W/m2
11:56 9.6 °F 1.8 °F 30.36 in Calm   2.0 mph 70% 0.00 in 90 W/m2
11:58 9.9 °F 2.1 °F 30.36 in Calm   2.0 mph 70% 0.00 in 91 W/m2
12:04 10.4 °F 2.5 °F 30.36 in Calm   1.0 mph 70% 0.00 in 95 W/m2
12:10 10.6 °F 2.4 °F 30.35 in Calm   3.0 mph 69% 0.00 in 98 W/m2
12:16 10.4 °F 2.5 °F 30.35 in Calm   3.0 mph 70% 0.00 in 102 W/m2
12:22 10.7 °F 1.6 °F 30.34 in NNE 1.0 mph 4.0 mph 66% 0.00 in 104 W/m2
12:28 8.0 °F -0.4 °F 30.34 in NE 2.0 mph 4.0 mph 68% 0.00 in 107 W/m2
12:34 7.8 °F 0.0 °F 30.34 in ENE 2.0 mph 3.0 mph 70% 0.00 in 113 W/m2
12:40 8.2 °F 0.1 °F 30.33 in NE 2.0 mph 2.0 mph 69% 0.00 in 114 W/m2
12:46 9.1 °F 1.0 °F 30.33 in NE 1.0 mph 2.0 mph 69% 0.00 in 118 W/m2
12:52 10.7 °F 2.2 °F 30.32 in NE 1.0 mph 2.0 mph 68% 0.00 in 137 W/m2
12:58 11.8 °F 2.6 °F 30.32 in South 2.0 mph 4.0 mph 66% 0.00 in 153 W/m2
13:00 11.8 °F 2.6 °F 30.32 in South 2.0 mph 2.0 mph 66% 0.00 in 158 W/m2
13:06 10.0 °F 0.6 °F 30.32 in ENE 2.0 mph 3.0 mph 65% 0.00 in 127 W/m2
13:12 9.7 °F 0.9 °F 30.31 in ENE 2.0 mph 2.0 mph 67% 0.00 in 123 W/m2
13:18 10.1 °F 1.6 °F 30.31 in NE 2.0 mph 4.0 mph 68% 0.00 in 113 W/m2
13:24 10.3 °F 1.2 °F 30.31 in NNE 1.0 mph 3.0 mph 66% 0.00 in 114 W/m2
13:30 9.9 °F 0.8 °F 30.31 in North 2.0 mph 4.0 mph 66% 0.00 in 81 W/m2
13:36 10.8 °F 2.3 °F 30.31 in SSE 3.0 mph 4.0 mph 68% 0.00 in 111 W/m2
13:42 11.2 °F 1.7 °F 30.31 in NE 2.0 mph 3.0 mph 65% 0.00 in 67 W/m2
13:44 10.9 °F 1.4 °F 30.30 in NE 2.0 mph 3.0 mph 65% 0.00 in 83 W/m2
13:50 10.7 °F 1.6 °F 30.30 in NE 1.0 mph 3.0 mph 66% 0.00 in 132 W/m2
13:56 12.5 °F 3.3 °F 30.29 in WSW 1.0 mph 5.0 mph 66% 0.00 in 72 W/m2
14:02 12.8 °F 2.9 °F 30.29 in South 3.0 mph 5.0 mph 64% 0.00 in 169 W/m2
14:08 13.2 °F 3.3 °F 30.29 in South 4.0 mph 9.0 mph 64% 0.00 in 144 W/m2
14:14 13.5 °F 3.2 °F 30.29 in SSW 4.0 mph 7.0 mph 63% 0.00 in 178 W/m2
14:20 13.6 °F 2.6 °F 30.29 in SW 4.0 mph 4.0 mph 61% 0.00 in 125 W/m2
14:26 13.1 °F 2.5 °F 30.29 in West 4.0 mph 5.0 mph 62% 0.00 in 33 W/m2
14:32 12.9 °F 2.7 °F 30.28 in WSW 3.0 mph 4.0 mph 63% 0.00 in 46 W/m2
14:38 13.0 °F 3.1 °F 30.28 in SW 3.0 mph 4.0 mph 64% 0.00 in 76 W/m2
14:46 13.2 °F 2.9 °F 30.28 in SW 3.0 mph 8.0 mph 63% 0.00 in 60 W/m2
14:54 13.2 °F 3.3 °F 30.28 in SW 3.0 mph 5.0 mph 64% 0.00 in 60 W/m2
15:00 13.3 °F 3.0 °F 30.27 in SSW 4.0 mph 4.0 mph 63% 0.00 in 111 W/m2
15:06 14.0 °F 3.4 °F 30.27 in SW 4.0 mph 5.0 mph 62% 0.00 in 139 W/m2
15:12 14.1 °F 3.5 °F 30.27 in South 3.0 mph 5.0 mph 62% 0.00 in 81 W/m2
15:18 14.2 °F 3.6 °F 30.27 in SSW 4.0 mph 5.0 mph 62% 0.00 in 74 W/m2
15:24 14.3 °F 3.3 °F 30.27 in SW 4.0 mph 4.0 mph 61% 0.00 in 93 W/m2
15:30 14.3 °F 2.9 °F 30.26 in SW 4.0 mph 6.0 mph 60% 0.00 in 116 W/m2
15:36 14.5 °F 3.1 °F 30.26 in SSW 4.0 mph 6.0 mph 60% 0.00 in 88 W/m2
15:42 14.3 °F 2.9 °F 30.26 in SW 3.0 mph 5.0 mph 60% 0.00 in 74 W/m2
15:48 14.1 °F 3.1 °F 30.26 in SW 4.0 mph 5.0 mph 61% 0.00 in 32 W/m2
15:54 14.0 °F 3.4 °F 30.26 in South 3.0 mph 4.0 mph 62% 0.00 in 58 W/m2
16:00 14.0 °F 3.0 °F 30.26 in SSW 2.0 mph 2.0 mph 61% 0.00 in 37 W/m2
16:06 14.0 °F 3.0 °F 30.26 in SSW 2.0 mph 4.0 mph 61% 0.00 in 25 W/m2
16:12 13.9 °F 2.6 °F 30.26 in SW 2.0 mph 4.0 mph 60% 0.00 in 18 W/m2
16:14 13.9 °F 2.6 °F 30.26 in SW 2.0 mph 4.0 mph 60% 0.00 in 14 W/m2
16:20 13.7 °F 2.0 °F 30.26 in WSW 2.0 mph 4.0 mph 59% 0.00 in 9 W/m2
16:26 13.6 °F 1.9 °F 30.26 in SW 3.0 mph 4.0 mph 59% 0.00 in 7 W/m2
16:32 13.6 °F 1.9 °F 30.25 in SW 2.0 mph 5.0 mph 59% 0.00 in 5 W/m2
16:36 13.6 °F 1.9 °F 30.25 in SSW 2.0 mph 5.0 mph 59% 0.00 in 0 W/m2
16:42 13.5 °F 1.8 °F 30.25 in SSW 2.0 mph 4.0 mph 59% 0.00 in 0 W/m2
16:48 13.6 °F 1.9 °F 30.25 in WSW 2.0 mph 4.0 mph 59% 0.00 in 0 W/m2
16:50 13.6 °F 1.9 °F 30.25 in WSW 2.0 mph 3.0 mph 59% 0.00 in 0 W/m2
16:56 13.7 °F 2.0 °F 30.25 in WSW 2.0 mph 3.0 mph 59% 0.00 in 0 W/m2
17:02 13.8 °F 2.1 °F 30.25 in SW 2.0 mph 3.0 mph 59% 0.00 in 0 W/m2
17:08 13.9 °F 1.8 °F 30.25 in SW 3.0 mph 10.0 mph 58% 0.00 in 0 W/m2
17:10 14.0 °F 1.9 °F 30.25 in SW 3.0 mph 3.0 mph 58% 0.00 in 0 W/m2
17:16 14.1 °F 2.0 °F 30.25 in West 4.0 mph 6.0 mph 58% 0.00 in 0 W/m2
17:22 14.1 °F 2.4 °F 30.25 in WSW 3.0 mph 7.0 mph 59% 0.00 in 0 W/m2
17:28 14.1 °F 2.4 °F 30.25 in SW 3.0 mph 7.0 mph 59% 0.00 in 0 W/m2
17:34 14.1 °F 2.4 °F 30.25 in WSW 4.0 mph 6.0 mph 59% 0.00 in 0 W/m2
17:40 14.2 °F 2.8 °F 30.25 in WNW 5.0 mph 5.0 mph 60% 0.00 in 0 W/m2
17:46 14.2 °F 2.8 °F 30.25 in WSW 5.0 mph 13.0 mph 60% 0.00 in 0 W/m2
17:52 14.2 °F 3.2 °F 30.24 in SW 6.0 mph 6.0 mph 61% 0.00 in 0 W/m2
17:58 14.1 °F 3.1 °F 30.24 in West 4.0 mph 6.0 mph 61% 0.00 in 0 W/m2
18:04 14.1 °F 3.5 °F 30.24 in WSW 3.0 mph 4.0 mph 62% 0.00 in 0 W/m2
18:10 14.1 °F 3.8 °F 30.24 in SW 3.0 mph 3.0 mph 63% 0.00 in 0 W/m2
18:14 14.1 °F 3.8 °F 30.24 in West 4.0 mph 4.0 mph 63% 0.00 in 0 W/m2
18:20 14.1 °F 4.1 °F 30.24 in WSW 5.0 mph 5.0 mph 64% 0.00 in 0 W/m2
18:26 14.1 °F 4.1 °F 30.25 in WSW 5.0 mph 6.0 mph 64% 0.00 in 0 W/m2
18:32 14.1 °F 4.5 °F 30.24 in SW 5.0 mph 8.0 mph 65% 0.00 in 0 W/m2
18:34 14.1 °F 4.5 °F 30.24 in West 5.0 mph 8.0 mph 65% 0.00 in 0 W/m2
18:40 14.0 °F 4.7 °F 30.24 in SW 5.0 mph 11.0 mph 66% 0.00 in 0 W/m2
18:46 14.0 °F 5.1 °F 30.24 in West 5.0 mph 11.0 mph 67% 0.00 in 0 W/m2
18:52 14.0 °F 5.1 °F 30.24 in West 5.0 mph 6.0 mph 67% 0.00 in 0 W/m2
18:58 13.9 °F 5.6 °F 30.24 in WNW 5.0 mph 6.0 mph 69% 0.00 in 0 W/m2
19:04 13.7 °F 6.0 °F 30.24 in SSW 5.0 mph 8.0 mph 71% 0.00 in 0 W/m2
19:10 13.7 °F 6.3 °F 30.24 in SW 5.0 mph 5.0 mph 72% 0.00 in 0 W/m2
19:16 13.6 °F 6.5 °F 30.24 in West 5.0 mph 6.0 mph 73% 0.00 in 0 W/m2
19:20 13.4 °F 7.0 °F 30.24 in West 5.0 mph 5.0 mph 75% 0.00 in 0 W/m2
19:26 13.1 °F 7.2 °F 30.24 in West 5.0 mph 8.0 mph 77% 0.00 in 0 W/m2
19:32 12.9 °F 7.9 °F 30.24 in SW 6.0 mph 9.0 mph 80% 0.00 in 0 W/m2
19:40 12.8 °F 8.3 °F 30.24 in WSW 6.0 mph 9.0 mph 82% 0.00 in 0 W/m2
19:46 12.9 °F 8.7 °F 30.24 in West 5.0 mph 9.0 mph 83% 0.00 in 0 W/m2
19:52 12.9 °F 8.7 °F 30.24 in WNW 5.0 mph 5.0 mph 83% 0.00 in 0 W/m2
19:58 12.9 °F 9.0 °F 30.24 in West 5.0 mph 6.0 mph 84% 0.00 in 0 W/m2
20:04 12.9 °F 9.0 °F 30.25 in WNW 4.0 mph 5.0 mph 84% 0.00 in 0 W/m2
20:10 12.9 °F 9.2 °F 30.25 in WNW 5.0 mph 5.0 mph 85% 0.00 in 0 W/m2
20:16 12.9 °F 9.2 °F 30.26 in WSW 5.0 mph 5.0 mph 85% 0.00 in 0 W/m2
20:22 12.9 °F 9.5 °F 30.26 in West 4.0 mph 6.0 mph 86% 0.00 in 0 W/m2
20:28 12.9 °F 9.5 °F 30.26 in WNW 4.0 mph 6.0 mph 86% 0.00 in 0 W/m2
20:34 12.9 °F 9.5 °F 30.26 in WNW 3.0 mph 4.0 mph 86% 0.00 in 0 W/m2
20:40 12.8 °F 9.4 °F 30.26 in West 3.0 mph 4.0 mph 86% 0.00 in 0 W/m2
20:46 12.8 °F 9.7 °F 30.26 in West 3.0 mph 5.0 mph 87% 0.00 in 0 W/m2
20:52 12.8 °F 9.7 °F 30.27 in West 4.0 mph 4.0 mph 87% 0.00 in 0 W/m2
20:58 12.8 °F 9.7 °F 30.27 in West 4.0 mph 4.0 mph 87% 0.00 in 0 W/m2
21:04 12.8 °F 9.7 °F 30.27 in WNW 3.0 mph 3.0 mph 87% 0.00 in 0 W/m2
21:10 12.8 °F 9.7 °F 30.27 in WNW 3.0 mph 3.0 mph 87% 0.00 in 0 W/m2
21:16 12.8 °F 9.7 °F 30.27 in WNW 4.0 mph 4.0 mph 87% 0.00 in 0 W/m2
21:20 12.8 °F 9.7 °F 30.27 in NW 4.0 mph 4.0 mph 87% 0.00 in 0 W/m2
21:26 12.8 °F 9.7 °F 30.27 in WNW 4.0 mph 6.0 mph 87% 0.00 in 0 W/m2
21:32 12.6 °F 9.5 °F 30.28 in WNW 5.0 mph 6.0 mph 87% 0.00 in 0 W/m2
21:38 12.2 °F 9.1 °F 30.28 in NW 5.0 mph 11.0 mph 87% 0.00 in 0 W/m2
21:44 11.9 °F 8.8 °F 30.28 in NW 5.0 mph 7.0 mph 87% 0.00 in 0 W/m2
21:46 11.8 °F 8.7 °F 30.28 in NNW 5.0 mph 7.0 mph 87% 0.00 in 0 W/m2
21:52 11.6 °F 8.5 °F 30.29 in WNW 4.0 mph 5.0 mph 87% 0.00 in 0 W/m2
21:58 11.2 °F 8.1 °F 30.29 in WNW 5.0 mph 8.0 mph 87% 0.00 in 0 W/m2
22:04 10.7 °F 7.6 °F 30.29 in NNW 6.0 mph 10.0 mph 87% 0.00 in 0 W/m2
22:10 10.4 °F 7.0 °F 30.30 in WNW 6.0 mph 6.0 mph 86% 0.00 in 0 W/m2
22:22 10.0 °F 6.6 °F 30.30 in NW 5.0 mph 6.0 mph 86% 0.00 in 0 W/m2
22:28 9.8 °F 6.5 °F 30.30 in West 4.0 mph 7.0 mph 86% 0.00 in 0 W/m2
22:34 9.7 °F 6.4 °F 30.30 in NW 5.0 mph 7.0 mph 86% 0.00 in 0 W/m2
22:40 9.6 °F 6.3 °F 30.30 in WNW 5.0 mph 5.0 mph 86% 0.00 in 0 W/m2
22:46 9.4 °F 6.1 °F 30.31 in WNW 5.0 mph 5.0 mph 86% 0.00 in 0 W/m2
22:52 9.2 °F 5.9 °F 30.31 in NNW 6.0 mph 8.0 mph 86% 0.00 in 0 W/m2
22:58 9.2 °F 5.9 °F 30.31 in WNW 5.0 mph 8.0 mph 86% 0.00 in 0 W/m2
23:02 9.1 °F 5.8 °F 30.32 in WNW 4.0 mph 6.0 mph 86% 0.00 in 0 W/m2
23:08 9.0 °F 5.4 °F 30.32 in WNW 4.0 mph 6.0 mph 85% 0.00 in 0 W/m2
23:14 8.9 °F 5.3 °F 30.32 in NW 4.0 mph 6.0 mph 85% 0.00 in 0 W/m2
23:20 8.7 °F 5.1 °F 30.32 in West 4.0 mph 4.0 mph 85% 0.00 in 0 W/m2
23:24 8.5 °F 4.7 °F 30.32 in NW 4.0 mph 4.0 mph 84% 0.00 in 0 W/m2
23:30 8.4 °F 4.6 °F 30.32 in WNW 4.0 mph 4.0 mph 84% 0.00 in 0 W/m2
23:36 8.3 °F 4.5 °F 30.32 in WNW 4.0 mph 6.0 mph 84% 0.00 in 0 W/m2
23:42 8.2 °F 4.4 °F 30.32 in NW 3.0 mph 5.0 mph 84% 0.00 in 0 W/m2
23:48 8.0 °F 4.2 °F 30.33 in WNW 3.0 mph 5.0 mph 84% 0.00 in 0 W/m2
23:54 7.9 °F 4.1 °F 30.33 in NW 3.0 mph 3.0 mph 84% 0.00 in 0 W/m2
Country Meadow, Clay, NY, USA
Compliments of Weather Underground - 2 mb